createdAt,value
2018-05-18T00:19:43.808Z,8.30
2018-05-18T00:22:16.569Z,8.30
2018-05-18T00:37:15.447Z,8.40
2018-05-18T01:07:26.239Z,8.50
2018-05-18T01:55:42.729Z,8.00
2018-05-18T02:25:16.820Z,7.60
2018-05-18T02:48:54.052Z,7.70
2018-05-18T02:57:29.185Z,7.50
2018-05-18T03:09:16.588Z,7.70
2018-05-18T03:33:07.959Z,7.60
2018-05-18T04:00:03.661Z,7.60
2018-05-18T04:38:00.598Z,7.40
2018-05-18T04:40:44.980Z,7.30
2018-05-18T04:58:15.971Z,7.40
2018-05-18T05:01:04.602Z,7.40
2018-05-18T05:19:16.067Z,7.50
2018-05-18T05:21:46.148Z,7.50
2018-05-18T05:40:44.845Z,7.60
2018-05-18T05:46:15.872Z,8.00
2018-05-18T05:48:46.600Z,8.10
2018-05-18T05:51:16.626Z,8.40
2018-05-18T05:56:49.058Z,8.60
2018-05-18T06:14:15.891Z,8.00
2018-05-18T06:26:15.366Z,8.40
2018-05-18T06:28:45.727Z,8.30
2018-05-18T06:31:15.983Z,8.30
2018-05-18T06:36:47.566Z,8.60
2018-05-18T06:39:16.070Z,8.80
2018-05-18T06:41:44.545Z,8.90
2018-05-18T06:47:16.041Z,9.10
2018-05-18T06:49:46.310Z,9.40
2018-05-18T06:52:16.016Z,9.40
2018-05-18T06:54:46.251Z,9.30
2018-05-18T06:57:15.585Z,9.10
2018-05-18T06:59:45.099Z,9.00
2018-05-18T07:02:18.626Z,8.80
2018-05-18T07:04:47.140Z,8.80
2018-05-18T07:07:15.671Z,8.70
2018-05-18T07:09:45.690Z,8.50
2018-05-18T07:12:16.060Z,8.70
2018-05-18T07:14:46.257Z,9.30
2018-05-18T07:17:14.715Z,10.10
2018-05-18T07:19:47.266Z,10.20
2018-05-18T07:22:15.792Z,9.90
2018-05-18T07:24:46.035Z,10.00
2018-05-18T07:27:15.471Z,10.40
2018-05-18T07:29:46.282Z,11.00
2018-05-18T07:32:16.206Z,10.80
2018-05-18T07:37:47.180Z,10.20
2018-05-18T07:40:16.508Z,10.20
2018-05-18T07:42:46.035Z,10.20
2018-05-18T07:45:15.616Z,10.30
2018-05-18T07:47:44.881Z,10.20
2018-05-18T07:50:16.296Z,10.30
2018-05-18T07:52:49.082Z,9.90
2018-05-18T07:55:17.640Z,9.80
2018-05-18T07:57:46.119Z,9.70
2018-05-18T08:03:29.576Z,9.70
2018-05-18T08:05:58.115Z,10.00
2018-05-18T08:08:26.665Z,10.10
2018-05-18T08:10:55.149Z,9.90
2018-05-18T08:13:23.705Z,9.80
2018-05-18T08:15:52.130Z,9.50
2018-05-18T08:18:20.621Z,9.70
2018-05-18T08:20:49.089Z,10.00
2018-05-18T08:23:17.551Z,10.30
2018-05-18T08:25:46.051Z,10.80
2018-05-18T08:28:14.534Z,10.30
2018-05-18T08:30:55.186Z,9.90
2018-05-18T08:33:23.664Z,10.10
2018-05-18T08:35:52.148Z,10.60
2018-05-18T08:38:20.691Z,10.50
2018-05-18T08:40:49.987Z,10.40
2018-05-18T08:43:19.370Z,10.50
2018-05-18T08:45:47.857Z,10.60
2018-05-18T08:48:16.257Z,10.70
2018-05-18T08:50:44.935Z,10.70
2018-05-18T08:53:13.453Z,10.60
2018-05-18T08:55:41.939Z,10.90
2018-05-18T08:58:09.859Z,11.20
2018-05-18T09:00:38.362Z,10.60
2018-05-18T09:03:06.899Z,10.60
2018-05-18T09:05:35.325Z,11.30
2018-05-18T09:08:03.558Z,12.10
2018-05-18T09:10:31.982Z,12.10
2018-05-18T09:25:13.414Z,13.20
2018-05-18T09:27:42.958Z,12.30
2018-05-18T09:30:14.202Z,12.70
2018-05-18T09:32:44.041Z,12.70
2018-05-18T09:35:14.606Z,13.20
2018-05-18T09:40:27.481Z,12.30
2018-05-18T09:42:56.167Z,12.30
2018-05-18T09:45:27.184Z,11.70
2018-05-18T09:47:57.742Z,12.10
2018-05-18T09:50:26.538Z,12.50
2018-05-18T09:52:56.234Z,11.50
2018-05-18T09:55:27.157Z,11.80
2018-05-18T09:57:57.314Z,11.50
2018-05-18T10:00:26.127Z,11.40
2018-05-18T10:03:00.900Z,11.60
2018-05-18T10:05:32.892Z,12.80
2018-05-18T10:08:01.800Z,12.50
2018-05-18T10:10:30.349Z,12.90
2018-05-18T10:13:05.616Z,12.60
2018-05-18T10:15:34.419Z,13.00
2018-05-18T10:18:08.219Z,13.30
2018-05-18T10:20:40.811Z,13.60
2018-05-18T10:23:29.284Z,13.60
2018-05-18T10:25:57.916Z,13.50
2018-05-18T10:28:35.723Z,13.20
2018-05-18T10:31:04.304Z,13.70
2018-05-18T10:33:43.775Z,13.90
2018-05-18T10:36:16.450Z,14.40
2018-05-18T10:38:46.332Z,13.90
2018-05-18T10:41:14.859Z,14.30
2018-05-18T10:43:44.034Z,15.20
2018-05-18T10:46:14.272Z,16.50
2018-05-18T10:48:43.742Z,14.80
2018-05-18T10:51:12.240Z,15.20
2018-05-18T10:53:42.048Z,14.20
2018-05-18T10:56:11.528Z,14.10
2018-05-18T10:58:44.084Z,14.30
2018-05-18T11:01:14.607Z,15.10
2018-05-18T11:03:51.289Z,16.30
2018-05-18T11:06:41.048Z,15.70
2018-05-18T11:11:45.320Z,14.20
2018-05-18T11:14:14.878Z,14.40
2018-05-18T11:16:45.196Z,15.00
2018-05-18T11:19:15.798Z,15.10
2018-05-18T11:21:45.244Z,14.50
2018-05-18T11:24:14.082Z,14.90
2018-05-18T11:26:44.271Z,15.90
2018-05-18T11:29:16.210Z,15.50
2018-05-18T11:31:47.569Z,16.10
2018-05-18T11:34:16.346Z,15.30
2018-05-18T11:36:46.070Z,15.40
2018-05-18T11:39:14.713Z,14.70
2018-05-18T11:41:42.823Z,15.60
2018-05-18T11:44:11.309Z,15.00
2018-05-18T11:46:44.134Z,14.40
2018-05-18T11:49:13.710Z,15.00
2018-05-18T11:51:42.205Z,15.10
2018-05-18T11:54:10.870Z,15.90
2018-05-18T11:56:45.354Z,15.10
2018-05-18T11:59:15.717Z,15.90
2018-05-18T12:01:45.194Z,16.00
2018-05-18T12:04:16.971Z,16.80
2018-05-18T12:06:45.439Z,17.90
2018-05-18T12:09:13.938Z,16.80
2018-05-18T12:11:44.865Z,15.30
2018-05-18T12:14:16.415Z,15.30
2018-05-18T12:17:04.781Z,16.30
2018-05-18T12:19:49.857Z,16.80
2018-05-18T12:25:37.124Z,16.40
2018-05-18T12:34:14.742Z,15.50
2018-05-18T12:36:45.290Z,15.90
2018-05-18T12:42:14.758Z,16.70
2018-05-18T12:44:45.789Z,17.10
2018-05-18T12:50:16.022Z,15.30
2018-05-18T12:52:44.540Z,15.10
2018-05-18T12:57:48.469Z,15.80
2018-05-18T13:02:55.798Z,17.40
2018-05-18T13:05:24.546Z,17.30
2018-05-18T13:07:54.168Z,15.70
2018-05-18T13:10:22.741Z,14.80
2018-05-18T13:12:51.262Z,14.80
2018-05-18T13:15:21.436Z,15.30
2018-05-18T13:17:49.811Z,15.80
2018-05-18T13:20:18.364Z,16.20
2018-05-18T13:22:47.138Z,16.50
2018-05-18T13:25:16.587Z,16.20
2018-05-18T13:27:46.849Z,15.80
2018-05-18T13:30:23.113Z,16.20
2018-05-18T13:32:52.091Z,16.10
2018-05-18T13:35:26.911Z,16.90
2018-05-18T13:38:06.859Z,16.60
2018-05-18T13:40:36.656Z,16.50
2018-05-18T13:43:24.007Z,17.20
2018-05-18T13:45:54.527Z,16.60
2018-05-18T13:48:32.303Z,15.80
2018-05-18T13:51:02.239Z,15.50
2018-05-18T13:53:30.738Z,15.70
2018-05-18T13:55:59.150Z,15.70
2018-05-18T13:58:33.302Z,15.60
2018-05-18T14:01:10.668Z,15.00
2018-05-18T14:03:48.120Z,15.30
2018-05-18T14:06:45.986Z,15.60
2018-05-18T14:09:16.703Z,15.60
2018-05-18T14:11:47.399Z,15.70
2018-05-18T14:14:17.406Z,16.20
2018-05-18T14:16:46.023Z,16.00
2018-05-18T14:19:15.255Z,16.00
2018-05-18T14:21:43.776Z,15.70
2018-05-18T14:24:12.354Z,15.60
2018-05-18T14:26:41.201Z,15.80
2018-05-18T14:29:13.315Z,15.80
2018-05-18T14:31:48.722Z,15.80
2018-05-18T14:34:17.199Z,15.70
2018-05-18T14:36:46.290Z,15.70
2018-05-18T14:39:15.754Z,15.90
2018-05-18T14:41:44.769Z,16.20
2018-05-18T14:44:14.358Z,15.50
2018-05-18T14:46:44.961Z,15.50
2018-05-18T14:49:15.076Z,15.40
2018-05-18T14:51:45.694Z,15.50
2018-05-18T14:54:14.177Z,15.50
2018-05-18T14:56:44.163Z,15.30
2018-05-18T14:59:14.267Z,15.20
2018-05-18T15:01:42.833Z,15.10
2018-05-18T15:04:11.950Z,15.30
2018-05-18T15:06:47.203Z,15.50
2018-05-18T15:11:57.573Z,15.60
2018-05-18T15:14:26.048Z,15.30
2018-05-18T15:16:54.559Z,15.60
2018-05-18T15:19:26.701Z,15.80
2018-05-18T15:21:55.288Z,16.10
2018-05-18T15:24:23.818Z,16.20
2018-05-18T15:26:53.253Z,15.60
2018-05-18T15:29:21.805Z,15.60
2018-05-18T15:34:32.717Z,15.70
2018-05-18T15:37:15.308Z,15.80
2018-05-18T15:39:55.812Z,15.80
2018-05-18T15:42:29.461Z,16.00
2018-05-18T15:44:58.021Z,15.90
2018-05-18T15:47:26.530Z,15.80
2018-05-18T15:49:55.012Z,15.70
2018-05-18T15:52:24.477Z,15.40
2018-05-18T15:54:56.627Z,15.50
2018-05-18T15:57:25.215Z,15.70
2018-05-18T16:00:11.403Z,15.60
2018-05-18T16:02:41.943Z,15.30
2018-05-18T16:05:11.339Z,15.50
2018-05-18T16:07:40.006Z,15.60
2018-05-18T16:12:45.729Z,15.60
2018-05-18T16:15:14.890Z,15.90
2018-05-18T16:17:43.465Z,16.00
2018-05-18T16:20:12.032Z,16.10
2018-05-18T16:22:43.522Z,16.20
2018-05-18T16:25:12.045Z,16.30
2018-05-18T16:27:40.582Z,16.20
2018-05-18T16:30:09.083Z,16.40
2018-05-18T16:32:37.578Z,16.10
2018-05-18T16:35:06.104Z,15.90
2018-05-18T16:37:46.931Z,16.10
2018-05-18T16:40:17.941Z,15.80
2018-05-18T16:42:46.440Z,15.50
2018-05-18T16:45:15.115Z,15.70
2018-05-18T16:47:44.446Z,15.70
2018-05-18T16:50:16.918Z,15.80
2018-05-18T16:52:46.678Z,15.80
2018-05-18T16:55:16.398Z,15.70
2018-05-18T16:57:44.978Z,15.70
2018-05-18T17:00:13.476Z,15.80
2018-05-18T17:02:42.108Z,15.70
2018-05-18T17:05:10.767Z,15.80
2018-05-18T17:07:39.394Z,15.70
2018-05-18T17:10:07.915Z,15.70
2018-05-18T17:12:38.408Z,15.40
2018-05-18T17:18:10.382Z,15.70
2018-05-18T17:20:38.926Z,15.80
2018-05-18T17:23:27.261Z,15.60
2018-05-18T17:25:58.635Z,15.50
2018-05-18T17:28:27.390Z,15.40
2018-05-18T17:30:55.364Z,15.40
2018-05-18T17:33:23.995Z,15.30
2018-05-18T17:35:52.616Z,15.30
2018-05-18T17:38:45.253Z,15.20
2018-05-18T17:41:13.721Z,15.10
2018-05-18T17:43:47.985Z,15.20
2018-05-18T17:46:16.592Z,15.20
2018-05-18T17:48:46.622Z,15.10
2018-05-18T17:51:16.978Z,15.10
2018-05-18T17:53:45.626Z,15.10
2018-05-18T17:56:32.197Z,15.10
2018-05-18T17:59:03.750Z,14.90
2018-05-18T18:01:45.728Z,15.00
2018-05-18T18:04:14.288Z,14.90
2018-05-18T18:06:42.878Z,14.90
2018-05-18T18:09:11.449Z,14.90
2018-05-18T18:11:40.478Z,14.90
2018-05-18T18:14:09.112Z,14.90
2018-05-18T18:16:38.763Z,14.80
2018-05-18T18:19:18.063Z,14.80
2018-05-18T18:21:47.422Z,14.50
2018-05-18T18:24:26.678Z,14.40
2018-05-18T18:26:55.270Z,14.40
2018-05-18T18:29:28.194Z,14.50
2018-05-18T18:31:56.747Z,14.40
2018-05-18T18:37:37.098Z,14.50
2018-05-18T18:40:18.710Z,14.40
2018-05-18T18:42:47.277Z,14.40
2018-05-18T18:45:15.902Z,14.40
2018-05-18T18:51:19.682Z,14.30
2018-05-18T18:54:15.419Z,14.20
2018-05-18T19:02:28.867Z,14.10
2018-05-18T19:04:57.499Z,14.10
2018-05-18T19:07:26.006Z,14.10
2018-05-18T19:09:54.565Z,14.10
2018-05-18T19:12:23.076Z,14.00
2018-05-18T19:14:51.749Z,13.90
2018-05-18T19:17:26.159Z,13.90
2018-05-18T19:22:58.427Z,13.80
2018-05-18T19:25:28.506Z,13.70
2018-05-18T19:27:57.622Z,13.70
2018-05-18T19:30:26.666Z,13.60
2018-05-18T19:33:14.518Z,13.60
2018-05-18T19:35:42.808Z,13.50
2018-05-18T19:38:13.458Z,13.40
2018-05-18T19:40:45.980Z,13.40
2018-05-18T19:46:19.501Z,13.20
2018-05-18T19:48:51.386Z,13.20
2018-05-18T19:51:20.295Z,13.20
2018-05-18T19:53:48.883Z,13.00
2018-05-18T19:56:17.441Z,12.90
2018-05-18T19:58:46.057Z,12.80
2018-05-18T20:01:16.707Z,12.80
2018-05-18T20:09:46.391Z,12.60
2018-05-18T20:12:15.019Z,12.60
2018-05-18T20:14:43.655Z,12.50
2018-05-18T20:20:07.363Z,12.30
2018-05-18T20:22:35.896Z,12.30
2018-05-18T20:25:04.636Z,12.20
2018-05-18T20:27:33.212Z,12.20
2018-05-18T20:30:01.786Z,12.20
2018-05-18T20:32:30.338Z,12.10
2018-05-18T20:34:58.896Z,12.00
2018-05-18T20:37:27.450Z,12.00
2018-05-18T20:40:17.708Z,12.00
2018-05-18T20:42:46.421Z,12.00
2018-05-18T20:45:17.779Z,11.90
2018-05-18T20:47:46.268Z,11.90
2018-05-18T20:50:32.839Z,11.90
2018-05-18T20:53:01.459Z,11.80
2018-05-18T20:55:44.665Z,11.70
2018-05-18T20:58:13.343Z,11.70
2018-05-18T21:00:42.031Z,11.60
2018-05-18T21:03:10.622Z,11.70
2018-05-18T21:05:46.542Z,11.60
2018-05-18T21:08:15.936Z,11.60
2018-05-18T21:10:44.439Z,11.50
2018-05-18T21:13:17.152Z,11.60
2018-05-18T21:15:45.639Z,11.50
2018-05-18T21:18:14.329Z,11.50
2018-05-18T21:20:42.825Z,11.40
2018-05-18T21:23:11.382Z,11.30
2018-05-18T21:25:40.038Z,11.30
2018-05-18T21:28:08.594Z,11.30
2018-05-18T21:30:37.130Z,11.20
2018-05-18T21:33:05.658Z,11.20
2018-05-18T21:35:34.142Z,11.10
2018-05-18T21:38:02.682Z,11.10
2018-05-18T21:40:31.332Z,11.00
2018-05-18T21:43:21.765Z,11.00
2018-05-18T21:45:50.375Z,10.90
2018-05-18T21:48:31.439Z,10.90
2018-05-18T21:50:59.994Z,10.80
2018-05-18T21:53:28.533Z,10.80
2018-05-18T21:55:57.052Z,10.70
2018-05-18T21:58:25.664Z,10.70
2018-05-18T22:00:54.164Z,10.60
2018-05-18T22:03:22.736Z,10.60
2018-05-18T22:05:51.354Z,10.60
2018-05-18T22:08:19.830Z,10.60
2018-05-18T22:10:48.325Z,10.50
2018-05-18T22:13:16.828Z,10.40
2018-05-18T22:15:45.363Z,10.40
2018-05-18T22:18:16.824Z,10.40
2018-05-18T22:23:27.504Z,10.30
2018-05-18T22:25:56.085Z,10.30
2018-05-18T22:31:15.248Z,10.20
2018-05-18T22:33:43.985Z,10.10
2018-05-18T22:36:12.692Z,10.10
2018-05-18T22:38:46.869Z,10.10
2018-05-18T22:41:16.590Z,10.00
2018-05-18T22:43:45.126Z,9.90
2018-05-18T22:46:14.948Z,9.90
2018-05-18T22:48:46.579Z,9.90
2018-05-18T22:53:57.054Z,9.80
2018-05-18T22:56:25.473Z,9.80
2018-05-18T22:58:53.960Z,9.80
2018-05-18T23:01:22.578Z,9.90
2018-05-18T23:04:18.314Z,9.90
2018-05-18T23:06:46.792Z,9.90
2018-05-18T23:09:15.280Z,9.80
2018-05-18T23:14:36.501Z,9.70
2018-05-18T23:17:45.053Z,9.60
2018-05-18T23:20:13.610Z,9.60
2018-05-18T23:22:42.248Z,9.70
2018-05-18T23:25:10.745Z,9.80
2018-05-18T23:27:46.611Z,9.80
2018-05-18T23:30:15.102Z,9.80
2018-05-18T23:32:43.675Z,9.70
2018-05-18T23:35:12.215Z,9.70
2018-05-18T23:40:45.615Z,9.60
2018-05-18T23:43:15.006Z,9.60
2018-05-18T23:45:44.390Z,9.50
2018-05-18T23:48:12.905Z,9.30
2018-05-18T23:50:41.339Z,9.20
2018-05-18T23:53:09.829Z,9.20
2018-05-18T23:55:38.371Z,9.30
2018-05-18T23:58:06.994Z,9.20
